WZZ1JR EPKK-EETN
Flight info
| Callsign | WZZ1JR |
|---|---|
| Flight time | 1h 29m |
| Altitude | 35000 |
| Route | POBOK M985 KOTEK DCT KURAV DCT BULEP DCT UNPEG DCT BOKSU DCT GUNTA M857 SOKVA DCT ANAMA DCT KEMET |
| Aircraft | A21N/M-SDE1E2E3FGIJ1J4RWXY/LB1 |
Departure
| Time | 2026-05-04 14:32 |
|---|---|
| Airport | Kraków John Paul II International Airport (EPKK) |
Arrival
| Time | 2026-05-04 16:01 |
|---|---|
| Airport | Lennart Meri Tallinn Airport (EETN) |
| Time | Latitude | Longitude | Altitude | Speed | Heading |
|---|---|---|---|---|---|
| 2026-05-04 14:11 | 50.07453 | 19.80471 | 803 ft | 0 kts | 108° |
| 2026-05-04 14:24 | 50.07453 | 19.80470 | 803 ft | 1 kts | 108° |
| 2026-05-04 14:24 | 50.07457 | 19.80448 | 803 ft | 2 kts | 108° |
| 2026-05-04 14:25 | 50.07462 | 19.80426 | 803 ft | 2 kts | 108° |
| 2026-05-04 14:25 | 50.07469 | 19.80390 | 803 ft | 1 kts | 108° |
| 2026-05-04 14:25 | 50.07468 | 19.80375 | 803 ft | 1 kts | 41° |
| 2026-05-04 14:26 | 50.07463 | 19.80370 | 803 ft | 0 kts | 13° |
| 2026-05-04 14:26 | 50.07479 | 19.80381 | 803 ft | 3 kts | 18° |
| 2026-05-04 14:26 | 50.07487 | 19.80385 | 803 ft | 0 kts | 17° |
| 2026-05-04 14:28 | 50.07505 | 19.80394 | 803 ft | 7 kts | 17° |
| 2026-05-04 14:28 | 50.07560 | 19.80413 | 803 ft | 8 kts | 8° |
| 2026-05-04 14:28 | 50.07619 | 19.80409 | 803 ft | 9 kts | 351° |
| 2026-05-04 14:29 | 50.07741 | 19.80371 | 803 ft | 8 kts | 348° |
| 2026-05-04 14:29 | 50.07830 | 19.80341 | 803 ft | 0 kts | 346° |
| 2026-05-04 14:30 | 50.07841 | 19.80337 | 803 ft | 3 kts | 347° |
| 2026-05-04 14:31 | 50.07903 | 19.80317 | 803 ft | 11 kts | 348° |
| 2026-05-04 14:31 | 50.08008 | 19.80175 | 803 ft | 15 kts | 259° |
| 2026-05-04 14:32 | 50.07766 | 19.78429 | 804 ft | 148 kts | 258° |
| 2026-05-04 14:32 | 50.07532 | 19.76666 | 1017 ft | 177 kts | 259° |
| 2026-05-04 14:32 | 50.07288 | 19.74805 | 1654 ft | 177 kts | 259° |
| 2026-05-04 14:32 | 50.07024 | 19.72958 | 2315 ft | 179 kts | 258° |
| 2026-05-04 14:33 | 50.06749 | 19.71030 | 2822 ft | 187 kts | 257° |
| 2026-05-04 14:33 | 50.06460 | 19.68990 | 3143 ft | 200 kts | 257° |
| 2026-05-04 14:33 | 50.06238 | 19.66785 | 3426 ft | 215 kts | 275° |
| 2026-05-04 14:33 | 50.06764 | 19.64595 | 3734 ft | 228 kts | 306° |
| 2026-05-04 14:34 | 50.08013 | 19.62952 | 3978 ft | 246 kts | 339° |
| 2026-05-04 14:34 | 50.09704 | 19.62328 | 4345 ft | 260 kts | 350° |
| 2026-05-04 14:34 | 50.11535 | 19.61794 | 4817 ft | 273 kts | 349° |
| 2026-05-04 14:34 | 50.13427 | 19.61485 | 5392 ft | 280 kts | 5° |
| 2026-05-04 14:35 | 50.15290 | 19.62436 | 6029 ft | 285 kts | 31° |
| 2026-05-04 14:35 | 50.16942 | 19.64082 | 6653 ft | 290 kts | 33° |
| 2026-05-04 14:35 | 50.18639 | 19.65807 | 7271 ft | 295 kts | 33° |
| 2026-05-04 14:35 | 50.20369 | 19.67554 | 7913 ft | 298 kts | 32° |
| 2026-05-04 14:36 | 50.22205 | 19.69088 | 8522 ft | 302 kts | 25° |
| 2026-05-04 14:36 | 50.24123 | 19.70478 | 9119 ft | 306 kts | 24° |
| 2026-05-04 14:36 | 50.26068 | 19.71861 | 9710 ft | 309 kts | 24° |
| 2026-05-04 14:36 | 50.28023 | 19.73269 | 10306 ft | 313 kts | 24° |
| 2026-05-04 14:37 | 50.30022 | 19.74728 | 10627 ft | 326 kts | 24° |
| 2026-05-04 14:37 | 50.32141 | 19.76290 | 10921 ft | 340 kts | 24° |
| 2026-05-04 14:37 | 50.34273 | 19.77873 | 11416 ft | 346 kts | 24° |
| 2026-05-04 14:37 | 50.36448 | 19.79498 | 12030 ft | 348 kts | 24° |
| 2026-05-04 14:38 | 50.38643 | 19.81142 | 12618 ft | 350 kts | 24° |
| 2026-05-04 14:38 | 50.40825 | 19.82779 | 13177 ft | 352 kts | 24° |
| 2026-05-04 14:38 | 50.43039 | 19.84440 | 13743 ft | 354 kts | 24° |
| 2026-05-04 14:38 | 50.45261 | 19.86109 | 14295 ft | 356 kts | 24° |
| 2026-05-04 14:39 | 50.47505 | 19.87797 | 14849 ft | 358 kts | 24° |
| 2026-05-04 14:39 | 50.49762 | 19.89497 | 15401 ft | 360 kts | 24° |
| 2026-05-04 14:39 | 50.52018 | 19.91199 | 15935 ft | 361 kts | 24° |
| 2026-05-04 14:40 | 50.56562 | 19.94633 | 16970 ft | 365 kts | 24° |
| 2026-05-04 14:40 | 50.58857 | 19.96369 | 17472 ft | 367 kts | 24° |
| 2026-05-04 14:40 | 50.61157 | 19.98110 | 17970 ft | 368 kts | 24° |
| 2026-05-04 14:40 | 50.63436 | 19.99838 | 18449 ft | 370 kts | 24° |
| 2026-05-04 14:41 | 50.65769 | 20.01610 | 18918 ft | 371 kts | 24° |
| 2026-05-04 14:41 | 50.68105 | 20.03385 | 19357 ft | 374 kts | 24° |
| 2026-05-04 14:41 | 50.72818 | 20.06974 | 20218 ft | 378 kts | 24° |
| 2026-05-04 14:42 | 50.77552 | 20.10589 | 21048 ft | 382 kts | 24° |
| 2026-05-04 14:42 | 50.79945 | 20.12417 | 21467 ft | 383 kts | 24° |
| 2026-05-04 14:42 | 50.82329 | 20.14242 | 21874 ft | 384 kts | 24° |
| 2026-05-04 14:43 | 50.84737 | 20.16087 | 22278 ft | 386 kts | 24° |
| 2026-05-04 14:43 | 50.87168 | 20.17952 | 22664 ft | 387 kts | 24° |
| 2026-05-04 14:43 | 50.89600 | 20.19821 | 23030 ft | 389 kts | 24° |
| 2026-05-04 14:43 | 50.92026 | 20.21688 | 23378 ft | 391 kts | 24° |
| 2026-05-04 14:44 | 50.94467 | 20.23567 | 23729 ft | 393 kts | 24° |
| 2026-05-04 14:44 | 50.96911 | 20.25451 | 24079 ft | 394 kts | 24° |
| 2026-05-04 14:44 | 50.99407 | 20.27378 | 24422 ft | 396 kts | 24° |
| 2026-05-04 14:44 | 51.01883 | 20.29291 | 24744 ft | 399 kts | 24° |
| 2026-05-04 14:45 | 51.04385 | 20.31227 | 25068 ft | 401 kts | 24° |
| 2026-05-04 14:45 | 51.06857 | 20.33142 | 25364 ft | 403 kts | 24° |
| 2026-05-04 14:45 | 51.09398 | 20.35110 | 25669 ft | 405 kts | 24° |
| 2026-05-04 14:45 | 51.11957 | 20.37096 | 25966 ft | 406 kts | 24° |
| 2026-05-04 14:46 | 51.14509 | 20.39082 | 26251 ft | 408 kts | 24° |
| 2026-05-04 14:46 | 51.17057 | 20.41066 | 26532 ft | 410 kts | 24° |
| 2026-05-04 14:46 | 51.19629 | 20.43070 | 26815 ft | 412 kts | 24° |
| 2026-05-04 14:46 | 51.22241 | 20.45109 | 27091 ft | 414 kts | 24° |
| 2026-05-04 14:47 | 51.24820 | 20.47124 | 27344 ft | 416 kts | 24° |
| 2026-05-04 14:47 | 51.27444 | 20.49177 | 27601 ft | 418 kts | 24° |
| 2026-05-04 14:47 | 51.30029 | 20.51203 | 27862 ft | 419 kts | 23° |
| 2026-05-04 14:47 | 51.32666 | 20.53271 | 28109 ft | 421 kts | 23° |
| 2026-05-04 14:48 | 51.35300 | 20.55338 | 28359 ft | 423 kts | 23° |
| 2026-05-04 14:48 | 51.37965 | 20.57432 | 28614 ft | 425 kts | 23° |
| 2026-05-04 14:48 | 51.40633 | 20.59532 | 28856 ft | 426 kts | 23° |
| 2026-05-04 14:48 | 51.43299 | 20.61632 | 29080 ft | 429 kts | 23° |
| 2026-05-04 14:49 | 51.45960 | 20.63733 | 29298 ft | 431 kts | 23° |
| 2026-05-04 14:49 | 51.48690 | 20.65889 | 29534 ft | 432 kts | 24° |
| 2026-05-04 14:49 | 51.51400 | 20.68032 | 29762 ft | 434 kts | 24° |
| 2026-05-04 14:49 | 51.54106 | 20.70175 | 29988 ft | 435 kts | 24° |
| 2026-05-04 14:50 | 51.56813 | 20.72323 | 30214 ft | 437 kts | 24° |
| 2026-05-04 14:50 | 51.59539 | 20.74491 | 30417 ft | 439 kts | 24° |
| 2026-05-04 14:50 | 51.62291 | 20.76681 | 30612 ft | 441 kts | 24° |
| 2026-05-04 14:50 | 51.65057 | 20.78884 | 30818 ft | 442 kts | 24° |
| 2026-05-04 14:51 | 51.67815 | 20.81085 | 31032 ft | 444 kts | 24° |
| 2026-05-04 14:51 | 51.70598 | 20.83309 | 31236 ft | 445 kts | 24° |
| 2026-05-04 14:51 | 51.73365 | 20.85523 | 31417 ft | 447 kts | 24° |
| 2026-05-04 14:51 | 51.76168 | 20.87769 | 31597 ft | 449 kts | 24° |
| 2026-05-04 14:52 | 51.78980 | 20.90025 | 31795 ft | 450 kts | 24° |
| 2026-05-04 14:52 | 51.81782 | 20.92275 | 31989 ft | 452 kts | 24° |
| 2026-05-04 14:52 | 51.84594 | 20.94537 | 32192 ft | 453 kts | 24° |
| 2026-05-04 14:52 | 51.87444 | 20.96832 | 32428 ft | 453 kts | 24° |
| 2026-05-04 14:53 | 51.89331 | 20.98354 | 32596 ft | 453 kts | 24° |
| 2026-05-04 14:53 | 51.93074 | 21.01379 | 32947 ft | 452 kts | 24° |
| 2026-05-04 14:53 | 51.95872 | 21.03644 | 33205 ft | 451 kts | 24° |
| 2026-05-04 14:53 | 51.98705 | 21.05940 | 33424 ft | 451 kts | 24° |
| 2026-05-04 14:54 | 52.01504 | 21.08212 | 33617 ft | 452 kts | 24° |
| 2026-05-04 14:54 | 52.04335 | 21.10513 | 33796 ft | 453 kts | 24° |
| 2026-05-04 14:54 | 52.07175 | 21.12826 | 33961 ft | 454 kts | 24° |
| 2026-05-04 14:54 | 52.09976 | 21.15108 | 34120 ft | 455 kts | 24° |
| 2026-05-04 14:55 | 52.12837 | 21.17442 | 34292 ft | 456 kts | 24° |
| 2026-05-04 14:55 | 52.15687 | 21.19772 | 34475 ft | 456 kts | 24° |
| 2026-05-04 14:55 | 52.18532 | 21.22102 | 34639 ft | 457 kts | 24° |
| 2026-05-04 14:55 | 52.21367 | 21.24426 | 34783 ft | 458 kts | 24° |
| 2026-05-04 14:56 | 52.24210 | 21.26758 | 34900 ft | 459 kts | 24° |
| 2026-05-04 14:56 | 52.27033 | 21.29077 | 34903 ft | 460 kts | 24° |
| 2026-05-04 14:56 | 52.33028 | 21.32759 | 34911 ft | 461 kts | 14° |
| 2026-05-04 14:57 | 52.39172 | 21.35804 | 34905 ft | 467 kts | 14° |
| 2026-05-04 14:57 | 52.45420 | 21.38942 | 34903 ft | 473 kts | 14° |
| 2026-05-04 14:58 | 52.51687 | 21.42146 | 34900 ft | 473 kts | 14° |
| 2026-05-04 14:58 | 52.56927 | 21.44845 | 34903 ft | 474 kts | 14° |
| 2026-05-04 14:59 | 52.64233 | 21.48627 | 34896 ft | 475 kts | 14° |
| 2026-05-04 15:00 | 52.73695 | 21.53545 | 34897 ft | 477 kts | 14° |
| 2026-05-04 15:00 | 52.80006 | 21.56843 | 34889 ft | 477 kts | 14° |
| 2026-05-04 15:01 | 52.89475 | 21.61814 | 34883 ft | 477 kts | 14° |
| 2026-05-04 15:01 | 52.95808 | 21.65148 | 34884 ft | 478 kts | 15° |
| 2026-05-04 15:02 | 53.02179 | 21.68509 | 34884 ft | 479 kts | 15° |
| 2026-05-04 15:02 | 53.08496 | 21.71852 | 34889 ft | 480 kts | 15° |
| 2026-05-04 15:03 | 53.14897 | 21.75248 | 34894 ft | 481 kts | 15° |
| 2026-05-04 15:03 | 53.21278 | 21.78641 | 34893 ft | 481 kts | 14° |
| 2026-05-04 15:04 | 53.27640 | 21.82028 | 34888 ft | 482 kts | 14° |
| 2026-05-04 15:04 | 53.33998 | 21.85427 | 34889 ft | 482 kts | 14° |
| 2026-05-04 15:05 | 53.40394 | 21.88864 | 34881 ft | 483 kts | 14° |
| 2026-05-04 15:05 | 53.46776 | 21.92303 | 34881 ft | 483 kts | 14° |
| 2026-05-04 15:06 | 53.53183 | 21.95767 | 34880 ft | 484 kts | 14° |
| 2026-05-04 15:07 | 53.62735 | 22.00955 | 34871 ft | 485 kts | 14° |
| 2026-05-04 15:07 | 53.69149 | 22.04450 | 34870 ft | 485 kts | 14° |
| 2026-05-04 15:08 | 53.75542 | 22.07947 | 34865 ft | 485 kts | 14° |
| 2026-05-04 15:08 | 53.81979 | 22.11478 | 34864 ft | 486 kts | 14° |
| 2026-05-04 15:09 | 53.88361 | 22.14990 | 34855 ft | 487 kts | 14° |
| 2026-05-04 15:09 | 53.94797 | 22.18546 | 34850 ft | 487 kts | 14° |
| 2026-05-04 15:10 | 54.04457 | 22.23902 | 34844 ft | 487 kts | 14° |
| 2026-05-04 15:11 | 54.14162 | 22.29310 | 34839 ft | 488 kts | 14° |
| 2026-05-04 15:11 | 54.20592 | 22.32907 | 34848 ft | 489 kts | 14° |
| 2026-05-04 15:12 | 54.27021 | 22.36515 | 34844 ft | 489 kts | 14° |
| 2026-05-04 15:12 | 54.33487 | 22.40156 | 34847 ft | 489 kts | 14° |
| 2026-05-04 15:13 | 54.39937 | 22.43800 | 34847 ft | 489 kts | 14° |
| 2026-05-04 15:13 | 54.46379 | 22.47452 | 34847 ft | 489 kts | 14° |
| 2026-05-04 15:14 | 54.52840 | 22.51127 | 34853 ft | 489 kts | 14° |
| 2026-05-04 15:14 | 54.59281 | 22.54802 | 34854 ft | 489 kts | 14° |
| 2026-05-04 15:15 | 54.65720 | 22.58491 | 34851 ft | 490 kts | 14° |
| 2026-05-04 15:15 | 54.72195 | 22.62210 | 34854 ft | 492 kts | 14° |
| 2026-05-04 15:16 | 54.81932 | 22.67827 | 34849 ft | 492 kts | 15° |
| 2026-05-04 15:17 | 54.91660 | 22.73467 | 34852 ft | 493 kts | 15° |
| 2026-05-04 15:17 | 55.01425 | 22.79160 | 34855 ft | 493 kts | 15° |
| 2026-05-04 15:18 | 55.07894 | 22.82948 | 34849 ft | 494 kts | 14° |
| 2026-05-04 15:19 | 55.17714 | 22.88720 | 34846 ft | 494 kts | 14° |
| 2026-05-04 15:19 | 55.27464 | 22.94480 | 34823 ft | 494 kts | 14° |
| 2026-05-04 15:20 | 55.33958 | 22.98334 | 34836 ft | 495 kts | 14° |
| 2026-05-04 15:20 | 55.40480 | 23.02221 | 34822 ft | 495 kts | 14° |
| 2026-05-04 15:21 | 55.46994 | 23.06114 | 34817 ft | 495 kts | 14° |
| 2026-05-04 15:22 | 55.56739 | 23.11962 | 34818 ft | 496 kts | 14° |
| 2026-05-04 15:22 | 55.66525 | 23.17868 | 34810 ft | 496 kts | 14° |
| 2026-05-04 15:23 | 55.73061 | 23.21832 | 34822 ft | 496 kts | 14° |
| 2026-05-04 15:23 | 55.79554 | 23.25777 | 34818 ft | 497 kts | 14° |
| 2026-05-04 15:24 | 55.92594 | 23.33752 | 34830 ft | 496 kts | 14° |
| 2026-05-04 15:25 | 55.99126 | 23.37767 | 34827 ft | 497 kts | 14° |
| 2026-05-04 15:26 | 56.08916 | 23.43812 | 34833 ft | 497 kts | 14° |
| 2026-05-04 15:26 | 56.18719 | 23.49900 | 34819 ft | 497 kts | 14° |
| 2026-05-04 15:27 | 56.28481 | 23.55994 | 34805 ft | 498 kts | 14° |
| 2026-05-04 15:28 | 56.38268 | 23.62134 | 34782 ft | 499 kts | 14° |
| 2026-05-04 15:29 | 56.48124 | 23.68356 | 34779 ft | 500 kts | 14° |
| 2026-05-04 15:30 | 56.71061 | 23.82963 | 34762 ft | 501 kts | 15° |
| 2026-05-04 15:31 | 56.80917 | 23.89297 | 34762 ft | 502 kts | 15° |
| 2026-05-04 15:32 | 56.97497 | 23.98414 | 34757 ft | 495 kts | 5° |
| 2026-05-04 15:34 | 57.14396 | 24.03982 | 34746 ft | 495 kts | 5° |
| 2026-05-04 15:34 | 57.24542 | 24.07392 | 34742 ft | 496 kts | 5° |
| 2026-05-04 15:35 | 57.34718 | 24.10840 | 34732 ft | 498 kts | 5° |
| 2026-05-04 15:36 | 57.44886 | 24.14304 | 34736 ft | 499 kts | 5° |
| 2026-05-04 15:36 | 57.51693 | 24.16638 | 34711 ft | 498 kts | 5° |
| 2026-05-04 15:37 | 57.55067 | 24.17801 | 34481 ft | 494 kts | 5° |
| 2026-05-04 15:37 | 57.58455 | 24.18971 | 33798 ft | 496 kts | 5° |
| 2026-05-04 15:37 | 57.61840 | 24.20140 | 32880 ft | 502 kts | 5° |
| 2026-05-04 15:37 | 57.65271 | 24.21325 | 31987 ft | 506 kts | 4° |
| 2026-05-04 15:38 | 57.68727 | 24.22521 | 31149 ft | 508 kts | 4° |
| 2026-05-04 15:38 | 57.72148 | 24.23708 | 30295 ft | 509 kts | 4° |
| 2026-05-04 15:38 | 57.75608 | 24.24909 | 29345 ft | 510 kts | 4° |
| 2026-05-04 15:38 | 57.79083 | 24.26116 | 28509 ft | 510 kts | 4° |
| 2026-05-04 15:39 | 57.82590 | 24.27338 | 27914 ft | 513 kts | 4° |
| 2026-05-04 15:39 | 57.86089 | 24.28561 | 27365 ft | 515 kts | 5° |
| 2026-05-04 15:39 | 57.93094 | 24.31009 | 26417 ft | 517 kts | 5° |
| 2026-05-04 15:40 | 57.96615 | 24.32217 | 25997 ft | 517 kts | 5° |
| 2026-05-04 15:40 | 58.00150 | 24.33423 | 25588 ft | 517 kts | 5° |
| 2026-05-04 15:40 | 58.03640 | 24.34624 | 25045 ft | 511 kts | 5° |
| 2026-05-04 15:40 | 58.07175 | 24.35836 | 24348 ft | 516 kts | 5° |
| 2026-05-04 15:41 | 58.10693 | 24.37046 | 23724 ft | 518 kts | 5° |
| 2026-05-04 15:41 | 58.14250 | 24.38277 | 23212 ft | 514 kts | 5° |
| 2026-05-04 15:41 | 58.17755 | 24.39497 | 22720 ft | 511 kts | 5° |
| 2026-05-04 15:41 | 58.21192 | 24.40695 | 22166 ft | 502 kts | 5° |
| 2026-05-04 15:42 | 58.24583 | 24.41879 | 21608 ft | 492 kts | 5° |
| 2026-05-04 15:42 | 58.27891 | 24.43039 | 20968 ft | 472 kts | 5° |
| 2026-05-04 15:42 | 58.31004 | 24.44135 | 20474 ft | 447 kts | 4° |
| 2026-05-04 15:42 | 58.33980 | 24.45181 | 20003 ft | 423 kts | 4° |
| 2026-05-04 15:43 | 58.36802 | 24.46171 | 19594 ft | 405 kts | 4° |
| 2026-05-04 15:43 | 58.39514 | 24.47114 | 19269 ft | 394 kts | 3° |
| 2026-05-04 15:43 | 58.42193 | 24.48045 | 18958 ft | 390 kts | 3° |
| 2026-05-04 15:43 | 58.44865 | 24.48976 | 18578 ft | 387 kts | 4° |
| 2026-05-04 15:44 | 58.47516 | 24.49909 | 18171 ft | 385 kts | 3° |
| 2026-05-04 15:44 | 58.50108 | 24.50822 | 17758 ft | 383 kts | 3° |
| 2026-05-04 15:44 | 58.52705 | 24.51740 | 17341 ft | 381 kts | 3° |
| 2026-05-04 15:44 | 58.55300 | 24.52656 | 16967 ft | 379 kts | 3° |
| 2026-05-04 15:45 | 58.57887 | 24.53574 | 16516 ft | 378 kts | 3° |
| 2026-05-04 15:45 | 58.60463 | 24.54487 | 16073 ft | 375 kts | 4° |
| 2026-05-04 15:45 | 58.62990 | 24.55389 | 15650 ft | 365 kts | 4° |
| 2026-05-04 15:45 | 58.65455 | 24.56275 | 15236 ft | 357 kts | 3° |
| 2026-05-04 15:46 | 58.67865 | 24.57137 | 14816 ft | 350 kts | 3° |
| 2026-05-04 15:46 | 58.70242 | 24.58002 | 14414 ft | 347 kts | 5° |
| 2026-05-04 15:46 | 58.72541 | 24.59287 | 14015 ft | 351 kts | 14° |
| 2026-05-04 15:46 | 58.74773 | 24.61213 | 13606 ft | 355 kts | 21° |
| 2026-05-04 15:47 | 58.76957 | 24.63482 | 13193 ft | 355 kts | 23° |
| 2026-05-04 15:47 | 58.79122 | 24.65825 | 12775 ft | 355 kts | 24° |
| 2026-05-04 15:47 | 58.81280 | 24.68159 | 12373 ft | 353 kts | 24° |
| 2026-05-04 15:47 | 58.83397 | 24.70435 | 11976 ft | 352 kts | 24° |
| 2026-05-04 15:48 | 58.85561 | 24.72748 | 11569 ft | 351 kts | 24° |
| 2026-05-04 15:48 | 58.87691 | 24.75020 | 11169 ft | 350 kts | 24° |
| 2026-05-04 15:48 | 58.91931 | 24.79539 | 10363 ft | 346 kts | 24° |
| 2026-05-04 15:49 | 58.94013 | 24.81764 | 9983 ft | 343 kts | 24° |
| 2026-05-04 15:49 | 58.96037 | 24.83934 | 9842 ft | 324 kts | 24° |
| 2026-05-04 15:49 | 58.97985 | 24.86031 | 9723 ft | 311 kts | 23° |
| 2026-05-04 15:49 | 58.99856 | 24.88037 | 9529 ft | 306 kts | 23° |
| 2026-05-04 15:50 | 59.01707 | 24.90014 | 9165 ft | 305 kts | 23° |
| 2026-05-04 15:50 | 59.03568 | 24.92007 | 8811 ft | 304 kts | 23° |
| 2026-05-04 15:50 | 59.05413 | 24.93988 | 8480 ft | 302 kts | 23° |
| 2026-05-04 15:50 | 59.07253 | 24.95964 | 8152 ft | 300 kts | 23° |
| 2026-05-04 15:51 | 59.09084 | 24.97936 | 7818 ft | 298 kts | 23° |
| 2026-05-04 15:51 | 59.10908 | 24.99907 | 7474 ft | 296 kts | 23° |
| 2026-05-04 15:51 | 59.12709 | 25.01853 | 7153 ft | 294 kts | 23° |
| 2026-05-04 15:51 | 59.14506 | 25.03795 | 6842 ft | 292 kts | 23° |
| 2026-05-04 15:52 | 59.16240 | 25.05673 | 6507 ft | 288 kts | 23° |
| 2026-05-04 15:52 | 59.17990 | 25.07575 | 6172 ft | 283 kts | 24° |
| 2026-05-04 15:52 | 59.19693 | 25.09426 | 5851 ft | 278 kts | 24° |
| 2026-05-04 15:52 | 59.21361 | 25.11239 | 5539 ft | 274 kts | 24° |
| 2026-05-04 15:53 | 59.23009 | 25.13030 | 5238 ft | 270 kts | 24° |
| 2026-05-04 15:53 | 59.24646 | 25.14810 | 4941 ft | 268 kts | 24° |
| 2026-05-04 15:53 | 59.26258 | 25.16565 | 4637 ft | 266 kts | 24° |
| 2026-05-04 15:53 | 59.27864 | 25.18318 | 4333 ft | 265 kts | 24° |
| 2026-05-04 15:54 | 59.29468 | 25.20073 | 4022 ft | 263 kts | 24° |
| 2026-05-04 15:54 | 59.31058 | 25.21815 | 3852 ft | 255 kts | 24° |
| 2026-05-04 15:54 | 59.32596 | 25.23347 | 3758 ft | 241 kts | 13° |
| 2026-05-04 15:54 | 59.34181 | 25.23924 | 3568 ft | 228 kts | 356° |
| 2026-05-04 15:55 | 59.35705 | 25.23968 | 3520 ft | 210 kts | 354° |
| 2026-05-04 15:55 | 59.37152 | 25.23957 | 3490 ft | 202 kts | 354° |
| 2026-05-04 15:55 | 59.38509 | 25.23961 | 3353 ft | 189 kts | 354° |
| 2026-05-04 15:55 | 59.39779 | 25.23825 | 3178 ft | 178 kts | 338° |
| 2026-05-04 15:56 | 59.40702 | 25.22447 | 2989 ft | 168 kts | 297° |
| 2026-05-04 15:56 | 59.41050 | 25.20266 | 2764 ft | 164 kts | 278° |
| 2026-05-04 15:56 | 59.41159 | 25.18108 | 2501 ft | 158 kts | 275° |
| 2026-05-04 15:56 | 59.41233 | 25.15979 | 2288 ft | 157 kts | 273° |
| 2026-05-04 15:57 | 59.41273 | 25.13824 | 2213 ft | 157 kts | 271° |
| 2026-05-04 15:57 | 59.41289 | 25.11676 | 2205 ft | 155 kts | 271° |
| 2026-05-04 15:57 | 59.41294 | 25.09698 | 2204 ft | 136 kts | 270° |
| 2026-05-04 15:57 | 59.41293 | 25.07907 | 2213 ft | 132 kts | 271° |
| 2026-05-04 15:58 | 59.41293 | 25.06107 | 2119 ft | 132 kts | 270° |
| 2026-05-04 15:58 | 59.41292 | 25.04299 | 1939 ft | 131 kts | 271° |
| 2026-05-04 15:58 | 59.41292 | 25.02526 | 1764 ft | 132 kts | 271° |
| 2026-05-04 15:58 | 59.41297 | 25.00717 | 1587 ft | 133 kts | 270° |
| 2026-05-04 15:59 | 59.41300 | 24.98890 | 1414 ft | 137 kts | 271° |
| 2026-05-04 15:59 | 59.41287 | 24.97010 | 1223 ft | 137 kts | 268° |
| 2026-05-04 15:59 | 59.41281 | 24.95172 | 1054 ft | 134 kts | 271° |
| 2026-05-04 15:59 | 59.41299 | 24.93334 | 878 ft | 135 kts | 269° |
| 2026-05-04 16:00 | 59.41301 | 24.91477 | 687 ft | 136 kts | 270° |
| 2026-05-04 16:00 | 59.41310 | 24.89613 | 483 ft | 137 kts | 269° |
| 2026-05-04 16:00 | 59.41313 | 24.87741 | 297 ft | 138 kts | 270° |
| 2026-05-04 16:00 | 59.41320 | 24.85839 | 154 ft | 134 kts | 270° |
| 2026-05-04 16:01 | 59.41325 | 24.84285 | 150 ft | 90 kts | 271° |
| 2026-05-04 16:01 | 59.41327 | 24.83349 | 148 ft | 58 kts | 270° |
| 2026-05-04 16:01 | 59.41330 | 24.82587 | 147 ft | 52 kts | 270° |
| 2026-05-04 16:01 | 59.41331 | 24.81921 | 147 ft | 46 kts | 270° |
| 2026-05-04 16:02 | 59.41333 | 24.81416 | 150 ft | 26 kts | 269° |
| 2026-05-04 16:02 | 59.41334 | 24.81210 | 151 ft | 13 kts | 268° |
| 2026-05-04 16:02 | 59.41334 | 24.80780 | 154 ft | 20 kts | 275° |
| 2026-05-04 16:03 | 59.41401 | 24.80557 | 155 ft | 17 kts | 315° |
| 2026-05-04 16:03 | 59.41495 | 24.80490 | 156 ft | 13 kts | 16° |
| 2026-05-04 16:03 | 59.41589 | 24.80515 | 157 ft | 13 kts | 358° |
| 2026-05-04 16:03 | 59.41681 | 24.80510 | 158 ft | 12 kts | 340° |
| 2026-05-04 16:04 | 59.41736 | 24.80408 | 158 ft | 10 kts | 286° |
| 2026-05-04 16:04 | 59.41749 | 24.80145 | 158 ft | 9 kts | 269° |
| 2026-05-04 16:04 | 59.41726 | 24.80057 | 158 ft | 7 kts | 190° |
| 2026-05-04 16:05 | 59.41694 | 24.80055 | 158 ft | 0 kts | 180° |